메인 페이지
METAR-TAF:

METAR-TAF

공항 :

러벅, 텍사스, 미국

위도: 33-40-03N, 경도: 101-49-17W, 고도: 1000m

현재 날씨관측

예보는 21분 전, 00:53시(UTC)에 발표되었습니다.
남남동11kt
온도 37°C
습도 16%
기압 1017 hPa
시정: 16.1km
고도 10000ft 상공 구름 조금
고도 26000ft 상공 구름 많음
고도 30000ft 상공 구름 많음

METAR: KLBB 220053Z COR 16011KT 10SM FEW100 BKN260 BKN300 37/07 A3002 RMK AO2 SLP104 T03720067

시각: 20:14 (01:14 UTC)

예보

예보는 1 시간 54분 전, 23:20시(UTC)에 발표되었습니다.
예보 대상 시간: 22일 00시부터 22일 24시까지 (UTC)
남남서11kt
시정: 10km
고도 25000ft 상공 구름 보통

TAF: KLBB 212320Z 2200/2224 20011KT P6SM SCT250

4,000개 이상의 공항 관측 자료 및 예보 (METAR 및 TAF 보고).

지도상에서 검색 가능한 기상관측소가 노란 점과 빨간 점으로 표시되어 있습니다.

기상관측소 명을 보려면 표시 위로 마우스를 이동하세요.

날씨 관측과 예보를 보려면 클릭하세요.

지도 변경 : 확대하려면 엑스 표시가 있는 녹색 버튼, 축소하려면 빼기 표시가 있는 녹색 버튼, 다음 페이지의 지도를 보려면 녹색 화살표를 클릭하세요.


METAR-TAF: